createdAt,value
2023-05-17T00:01:51.339Z,7.87
2023-05-17T00:05:54.113Z,7.85
2023-05-17T00:09:56.788Z,7.84
2023-05-17T00:14:00.779Z,7.87
2023-05-17T00:18:03.630Z,7.79
2023-05-17T00:22:06.456Z,7.76
2023-05-17T00:26:09.094Z,7.72
2023-05-17T00:30:13.476Z,7.72
2023-05-17T00:34:16.121Z,7.66
2023-05-17T00:38:18.750Z,7.67
2023-05-17T00:42:21.403Z,7.63
2023-05-17T00:46:25.396Z,7.63
2023-05-17T00:50:28.509Z,7.61
2023-05-17T00:54:32.393Z,7.58
2023-05-17T00:58:35.240Z,7.53
2023-05-17T01:02:39.298Z,7.55
2023-05-17T01:06:42.029Z,7.48
2023-05-17T01:10:54.095Z,7.43
2023-05-17T01:15:04.381Z,7.39
2023-05-17T01:19:20.965Z,7.35
2023-05-17T01:23:43.179Z,7.25
2023-05-17T01:27:50.631Z,7.21
2023-05-17T01:31:54.340Z,7.25
2023-05-17T01:35:56.989Z,7.23
2023-05-17T01:39:59.712Z,7.15
2023-05-17T01:44:13.979Z,7.15
2023-05-17T01:48:22.006Z,7.11
2023-05-17T01:52:31.032Z,7.07
2023-05-17T01:56:36.673Z,7.04
2023-05-17T02:00:42.574Z,7.03
2023-05-17T02:04:45.376Z,6.97
2023-05-17T02:08:48.284Z,6.94
2023-05-17T02:12:50.929Z,6.91
2023-05-17T02:16:54.905Z,6.87
2023-05-17T02:20:57.860Z,6.82
2023-05-17T02:25:00.540Z,6.73
2023-05-17T02:29:03.165Z,6.75
2023-05-17T02:33:07.680Z,6.73
2023-05-17T02:37:10.368Z,6.68
2023-05-17T02:41:13.024Z,6.65
2023-05-17T02:45:15.719Z,6.65
2023-05-17T02:49:19.716Z,6.63
2023-05-17T02:53:22.374Z,6.58
2023-05-17T02:57:25.006Z,6.49
2023-05-17T03:01:27.868Z,6.51
2023-05-17T03:05:31.869Z,6.44
2023-05-17T03:09:34.604Z,6.36
2023-05-17T03:13:37.282Z,6.35
2023-05-17T03:17:40.147Z,6.33
2023-05-17T03:21:44.209Z,6.29
2023-05-17T03:25:46.845Z,6.23
2023-05-17T03:29:49.519Z,6.20
2023-05-17T03:33:52.403Z,6.19
2023-05-17T03:37:56.615Z,6.17
2023-05-17T03:41:59.383Z,6.11
2023-05-17T03:46:02.112Z,6.10
2023-05-17T03:50:05.419Z,6.08
2023-05-17T03:54:09.546Z,6.06
2023-05-17T03:58:12.406Z,6.05
2023-05-17T04:02:16.558Z,6.01
2023-05-17T04:06:19.190Z,5.98
2023-05-17T04:10:23.550Z,5.99
2023-05-17T04:14:26.287Z,5.94
2023-05-17T04:18:29.251Z,5.87
2023-05-17T04:22:31.944Z,5.91
2023-05-17T04:26:35.947Z,5.91
2023-05-17T04:30:42.732Z,5.90
2023-05-17T04:34:45.437Z,5.89
2023-05-17T04:38:48.265Z,5.88
2023-05-17T04:42:52.308Z,5.93
2023-05-17T04:46:54.956Z,5.99
2023-05-17T04:50:57.766Z,6.01
2023-05-17T04:55:00.682Z,6.01
2023-05-17T04:59:04.769Z,6.06
2023-05-17T05:03:07.641Z,6.13
2023-05-17T05:07:10.416Z,6.21
2023-05-17T05:11:13.083Z,6.27
2023-05-17T05:15:17.510Z,6.30
2023-05-17T05:19:20.464Z,6.30
2023-05-17T05:23:23.154Z,6.35
2023-05-17T05:27:25.861Z,6.40
2023-05-17T05:31:30.714Z,6.46
2023-05-17T05:35:33.373Z,6.43
2023-05-17T05:39:36.150Z,6.43
2023-05-17T05:43:38.932Z,6.51
2023-05-17T05:47:42.984Z,6.57
2023-05-17T05:51:45.796Z,6.56
2023-05-17T05:55:49.472Z,6.66
2023-05-17T05:59:52.159Z,6.73
2023-05-17T06:03:56.188Z,6.83
2023-05-17T06:07:58.910Z,6.99
2023-05-17T06:12:01.761Z,7.08
2023-05-17T06:16:06.144Z,7.10
2023-05-17T06:20:11.246Z,7.17
2023-05-17T06:24:14.488Z,7.33
2023-05-17T06:28:18.212Z,7.40
2023-05-17T06:32:20.903Z,7.56
2023-05-17T06:36:25.554Z,7.75
2023-05-17T06:40:28.504Z,7.80
2023-05-17T06:44:31.475Z,7.99
2023-05-17T06:48:34.285Z,8.07
2023-05-17T06:52:38.561Z,8.26
2023-05-17T06:56:41.226Z,8.41
2023-05-17T07:00:43.884Z,8.57
2023-05-17T07:04:46.639Z,8.79
2023-05-17T07:08:51.459Z,8.96
2023-05-17T07:12:54.462Z,9.23
2023-05-17T07:16:57.141Z,9.24
2023-05-17T07:21:00.481Z,9.30
2023-05-17T07:25:04.882Z,9.70
2023-05-17T07:29:07.776Z,10.11
2023-05-17T07:33:11.579Z,10.28
2023-05-17T07:37:14.430Z,10.46
2023-05-17T07:41:22.435Z,10.53
2023-05-17T07:45:25.144Z,10.78
2023-05-17T07:49:28.518Z,10.94
2023-05-17T07:53:31.349Z,11.16
2023-05-17T07:57:35.390Z,11.31
2023-05-17T08:01:38.060Z,11.20
2023-05-17T08:05:43.894Z,11.48
2023-05-17T08:09:46.853Z,11.24
2023-05-17T08:13:51.439Z,11.17
2023-05-17T08:17:54.160Z,11.07
2023-05-17T08:21:57.019Z,10.99
2023-05-17T08:25:59.657Z,11.07
2023-05-17T08:30:07.001Z,11.04
2023-05-17T08:34:11.905Z,11.15
2023-05-17T08:38:14.641Z,11.25
2023-05-17T08:42:21.121Z,11.22
2023-05-17T08:46:27.426Z,11.21
2023-05-17T08:50:32.219Z,11.30
2023-05-17T08:54:35.767Z,11.28
2023-05-17T08:58:55.568Z,11.34
2023-05-17T09:03:00.765Z,11.58
2023-05-17T09:07:03.524Z,11.58
2023-05-17T09:11:06.504Z,11.75
2023-05-17T09:15:16.749Z,11.78
2023-05-17T09:19:20.824Z,11.89
2023-05-17T09:23:23.728Z,12.06
2023-05-17T09:27:27.406Z,12.11
2023-05-17T09:31:30.034Z,11.94
2023-05-17T09:35:35.801Z,11.88
2023-05-17T09:39:38.509Z,11.70
2023-05-17T09:43:41.187Z,11.68
2023-05-17T09:47:44.309Z,11.83
2023-05-17T09:51:50.400Z,11.93
2023-05-17T09:55:57.163Z,11.99
2023-05-17T09:59:59.931Z,12.16
2023-05-17T10:04:03.602Z,12.11
2023-05-17T10:08:08.615Z,12.02
2023-05-17T10:12:16.397Z,12.07
2023-05-17T10:16:22.091Z,11.95
2023-05-17T10:20:25.021Z,12.22
2023-05-17T10:24:31.366Z,12.59
2023-05-17T10:28:34.537Z,12.59
2023-05-17T10:32:37.702Z,12.34
2023-05-17T10:36:41.833Z,11.95
2023-05-17T10:40:47.818Z,11.99
2023-05-17T10:44:50.736Z,12.34
2023-05-17T10:48:55.082Z,13.00
2023-05-17T10:53:00.488Z,13.60
2023-05-17T10:57:08.993Z,14.17
2023-05-17T11:01:11.847Z,14.47
2023-05-17T11:05:24.980Z,14.31
2023-05-17T11:09:33.647Z,14.03
2023-05-17T11:13:45.501Z,13.05
2023-05-17T11:17:54.196Z,12.75
2023-05-17T11:21:57.584Z,12.48
2023-05-17T11:26:17.136Z,12.49
2023-05-17T11:30:26.746Z,12.50
2023-05-17T11:34:29.923Z,12.83
2023-05-17T11:38:33.180Z,12.92
2023-05-17T11:42:37.310Z,12.71
2023-05-17T11:46:42.545Z,12.94
2023-05-17T11:50:46.843Z,13.33
2023-05-17T11:54:50.552Z,13.51
2023-05-17T11:58:53.337Z,13.43
2023-05-17T12:02:57.684Z,13.25
2023-05-17T12:07:01.332Z,13.35
2023-05-17T12:11:05.203Z,13.28
2023-05-17T12:15:09.522Z,13.21
2023-05-17T12:19:20.335Z,13.19
2023-05-17T12:23:33.350Z,13.15
2023-05-17T12:27:36.014Z,13.18
2023-05-17T12:31:41.656Z,13.20
2023-05-17T12:35:46.245Z,13.24
2023-05-17T12:39:49.126Z,13.39
2023-05-17T12:43:55.014Z,13.54
2023-05-17T12:48:06.389Z,13.69
2023-05-17T12:52:11.421Z,13.88
2023-05-17T12:56:19.493Z,13.95
2023-05-17T13:00:22.704Z,14.08
2023-05-17T13:04:31.846Z,13.82
2023-05-17T13:08:36.722Z,13.64
2023-05-17T13:12:40.376Z,14.43
2023-05-17T13:16:43.287Z,14.70
2023-05-17T13:20:46.256Z,14.50
2023-05-17T13:24:51.262Z,14.32
2023-05-17T13:28:53.903Z,13.97
2023-05-17T13:32:56.996Z,13.78
2023-05-17T13:37:00.054Z,14.16
2023-05-17T13:41:04.299Z,14.64
2023-05-17T13:45:09.247Z,14.45
2023-05-17T13:49:13.032Z,14.28
2023-05-17T13:53:15.827Z,14.88
2023-05-17T13:57:19.836Z,15.54
2023-05-17T14:01:23.069Z,15.72
2023-05-17T14:05:25.982Z,15.75
2023-05-17T14:09:30.677Z,15.30
2023-05-17T14:13:34.717Z,14.61
2023-05-17T14:17:37.680Z,14.64
2023-05-17T14:21:40.390Z,14.64
2023-05-17T14:25:43.799Z,15.28
2023-05-17T14:29:47.822Z,15.79
2023-05-17T14:33:50.619Z,15.38
2023-05-17T14:37:53.247Z,14.86
2023-05-17T14:41:56.265Z,14.54
2023-05-17T14:46:00.291Z,13.90
2023-05-17T14:50:03.039Z,13.38
2023-05-17T14:54:05.915Z,13.20
2023-05-17T14:58:09.057Z,13.28
2023-05-17T15:02:13.075Z,13.10
2023-05-17T15:06:15.808Z,13.01
2023-05-17T15:10:18.626Z,12.98
2023-05-17T15:14:23.927Z,12.81
2023-05-17T15:18:27.910Z,12.82
2023-05-17T15:22:30.614Z,13.17
2023-05-17T15:26:34.122Z,13.21
2023-05-17T15:30:36.822Z,13.43
2023-05-17T15:34:41.217Z,13.51
2023-05-17T15:38:43.935Z,13.35
2023-05-17T15:42:47.020Z,13.23
2023-05-17T15:46:49.701Z,13.16
2023-05-17T15:50:53.745Z,13.07
2023-05-17T15:54:57.247Z,12.89
2023-05-17T15:59:01.941Z,12.62
2023-05-17T16:03:06.350Z,12.59
2023-05-17T16:07:10.386Z,12.55
2023-05-17T16:11:13.255Z,12.69
2023-05-17T16:15:15.900Z,12.49
2023-05-17T16:19:19.307Z,12.63
2023-05-17T16:23:23.390Z,12.75
2023-05-17T16:27:26.155Z,12.87
2023-05-17T16:31:28.863Z,12.82
2023-05-17T16:35:31.915Z,12.61
2023-05-17T16:39:36.447Z,12.57
2023-05-17T16:43:39.069Z,12.53
2023-05-17T16:47:41.920Z,12.67
2023-05-17T16:51:45.478Z,12.74
2023-05-17T16:55:49.515Z,12.63
2023-05-17T16:59:52.284Z,12.49
2023-05-17T17:03:56.684Z,12.37
2023-05-17T17:07:59.535Z,12.25
2023-05-17T17:12:16.231Z,12.20
2023-05-17T17:16:26.345Z,12.04
2023-05-17T17:20:29.341Z,11.93
2023-05-17T17:24:33.938Z,11.86
2023-05-17T17:28:38.010Z,11.77
2023-05-17T17:32:40.844Z,11.67
2023-05-17T17:36:44.066Z,11.59
2023-05-17T17:40:46.760Z,11.48
2023-05-17T17:44:50.818Z,11.48
2023-05-17T17:48:55.103Z,11.41
2023-05-17T17:53:00.046Z,11.31
2023-05-17T17:57:03.592Z,11.28
2023-05-17T18:01:07.642Z,11.32
2023-05-17T18:05:11.411Z,11.26
2023-05-17T18:09:14.111Z,11.14
2023-05-17T18:13:16.751Z,11.13
2023-05-17T18:17:21.026Z,11.06
2023-05-17T18:21:23.847Z,11.02
2023-05-17T18:25:26.566Z,10.96
2023-05-17T18:29:29.383Z,10.78
2023-05-17T18:33:35.163Z,10.62
2023-05-17T18:37:37.891Z,10.57
2023-05-17T18:41:40.592Z,10.47
2023-05-17T18:45:43.240Z,10.35
2023-05-17T18:49:49.170Z,10.26
2023-05-17T18:53:53.728Z,10.15
2023-05-17T18:57:56.456Z,10.06
2023-05-17T19:02:00.510Z,10.00
2023-05-17T19:06:04.725Z,9.95
2023-05-17T19:10:08.332Z,9.85
2023-05-17T19:14:11.330Z,9.73
2023-05-17T19:18:14.075Z,9.66
2023-05-17T19:22:18.087Z,9.64
2023-05-17T19:26:21.636Z,9.67
2023-05-17T19:30:24.333Z,9.60
2023-05-17T19:34:27.083Z,9.54
2023-05-17T19:38:32.547Z,9.41
2023-05-17T19:42:35.222Z,9.37
2023-05-17T19:46:37.976Z,9.23
2023-05-17T19:50:40.917Z,9.19
2023-05-17T19:54:44.931Z,9.17
2023-05-17T19:58:47.565Z,9.16
2023-05-17T20:02:50.382Z,9.07
2023-05-17T20:06:53.328Z,9.02
2023-05-17T20:10:57.355Z,9.05
2023-05-17T20:15:00.216Z,9.02
2023-05-17T20:19:03.003Z,8.92
2023-05-17T20:23:06.319Z,8.88
2023-05-17T20:27:10.723Z,8.80
2023-05-17T20:31:13.736Z,8.74
2023-05-17T20:35:16.539Z,8.67
2023-05-17T20:39:21.464Z,8.59
2023-05-17T20:43:28.781Z,8.55
2023-05-17T20:47:32.474Z,8.51
2023-05-17T20:51:35.172Z,8.46
2023-05-17T20:55:37.832Z,8.44
2023-05-17T20:59:42.222Z,8.40
2023-05-17T21:03:45.019Z,8.32
2023-05-17T21:07:50.480Z,8.22
2023-05-17T21:11:53.215Z,8.19
2023-05-17T21:15:57.794Z,8.21
2023-05-17T21:20:00.590Z,8.17
2023-05-17T21:24:03.474Z,8.17
2023-05-17T21:28:07.097Z,8.09
2023-05-17T21:32:11.369Z,8.02
2023-05-17T21:36:14.069Z,7.93
2023-05-17T21:40:16.730Z,7.87
2023-05-17T21:44:19.524Z,7.82
2023-05-17T21:48:23.514Z,7.81
2023-05-17T21:52:26.164Z,7.75
2023-05-17T21:56:28.841Z,7.72
2023-05-17T22:00:31.692Z,7.59
2023-05-17T22:04:36.126Z,7.41
2023-05-17T22:08:42.185Z,7.24
2023-05-17T22:12:44.889Z,7.05
2023-05-17T22:16:47.981Z,7.01
2023-05-17T22:20:53.108Z,6.91
2023-05-17T22:24:55.752Z,6.82
2023-05-17T22:28:58.393Z,6.83
2023-05-17T22:33:01.433Z,6.78
2023-05-17T22:37:07.389Z,6.71
2023-05-17T22:41:10.695Z,6.70
2023-05-17T22:45:14.361Z,6.73
2023-05-17T22:49:17.038Z,6.71
2023-05-17T22:53:21.000Z,6.71
2023-05-17T22:57:23.777Z,6.71
2023-05-17T23:01:26.612Z,6.67
2023-05-17T23:05:29.540Z,6.66
2023-05-17T23:09:34.524Z,6.62
2023-05-17T23:13:37.370Z,6.54
2023-05-17T23:17:41.206Z,6.51
2023-05-17T23:21:46.278Z,6.47
2023-05-17T23:25:50.790Z,6.46
2023-05-17T23:29:54.179Z,6.43
2023-05-17T23:33:56.992Z,6.38
2023-05-17T23:37:59.697Z,6.38
2023-05-17T23:42:03.749Z,6.34
2023-05-17T23:46:06.641Z,6.29
2023-05-17T23:50:10.237Z,6.24
2023-05-17T23:54:13.556Z,6.17
2023-05-17T23:58:17.532Z,6.12
